Warm Springs, Nevada
Current Conditions -  °F | °C
As of 9:56 PM on Tuesday 27 Jan 2015 (Local Time) from KTPH Reporting Station
Overcast Overcast  
Wind Chill: 36°   Ceiling: 8500
Heat Index: 42°   Visibility: 10mi
Dew Point: 33°   Wind: 12mph
Humidity: 70%   Direction: 310°NW
Pressure: 30.28"   Gusts: NA
Location:  38.4847°N, 116.233°W
Report Text: KTPH 280556Z AUTO 31010KT 10SM OVC085 06/01 A3028 RMK AO2 SLP242 60006 T00560006 10100 20050 53007
Loading
Personal Weather Stations






























Interactive Weather Map New forecast layout! Learn more

10-Day Weather Forecast

Advertisements
Track Severe Weather on mobile